Time;durP1;ratioP1;P1;durP2;ratioP2;P2;SDS_P1;SDS_P2;PMS_P1;PMS_P2;Temp;Humidity;BMP_temperature;BMP_pressure;BME280_temperature;BME280_humidity;BME280_pressure;Samples;Min_cycle;Max_cycle;Signal;HPM_P1;HPM_P2
2021/03/27 00:02:14;;;;;;;13.77;1.88;;;9.60;68.30;;;;;;4995506;28;20038;-74
2021/03/27 00:05:01;;;;;;;12.68;2.17;;;9.60;68.80;;;;;;4995431;28;20519;-74
2021/03/27 00:07:34;;;;;;;10.23;2.00;;;9.50;69.10;;;;;;4993821;28;20088;-74
2021/03/27 00:10:38;;;;;;;13.07;1.85;;;9.50;68.60;;;;;;4977775;28;20092;-74
2021/03/27 00:13:33;;;;;;;18.73;2.30;;;9.60;68.20;;;;;;4982146;28;20044;-74
2021/03/27 00:16:02;;;;;;;;;;;9.50;68.00;;;;;;4995679;28;20268;-74
2021/03/27 00:18:45;;;;;;;14.23;2.08;;;9.50;68.30;;;;;;4978055;28;20355;-74
2021/03/27 00:21:27;;;;;;;14.13;2.47;;;9.50;68.70;;;;;;4994967;28;20052;-74
2021/03/27 00:23:58;;;;;;;16.45;2.20;;;9.50;69.50;;;;;;4993630;28;20031;-74
2021/03/27 00:26:31;;;;;;;17.45;2.53;;;9.40;69.80;;;;;;4995374;28;20042;-74
2021/03/27 00:29:14;;;;;;;18.63;3.15;;;9.40;70.70;;;;;;4977800;28;20443;-74
2021/03/27 00:31:44;;;;;;;12.43;1.73;;;9.30;71.30;;;;;;4994919;28;20044;-74
2021/03/27 00:34:18;;;;;;;14.60;2.20;;;9.30;71.90;;;;;;4993958;28;20046;-74
2021/03/27 00:36:50;;;;;;;17.45;3.25;;;9.30;72.20;;;;;;4995267;28;20101;-74
2021/03/27 00:39:21;;;;;;;16.45;2.22;;;9.30;72.20;;;;;;4977376;28;20042;-74
2021/03/27 00:42:01;;;;;;;20.23;2.45;;;9.30;72.40;;;;;;4995614;28;20140;-74
2021/03/27 00:44:42;;;;;;;17.05;3.20;;;9.30;72.70;;;;;;4995545;28;20046;-74
2021/03/27 00:47:13;;;;;;;16.10;2.00;;;9.30;72.80;;;;;;4995406;28;20034;-74
2021/03/27 00:49:52;;;;;;;15.55;2.92;;;9.30;73.10;;;;;;4995464;28;20034;-74
2021/03/27 00:52:20;;;;;;;14.18;2.20;;;9.30;73.40;;;;;;4995281;28;20057;-75
2021/03/27 00:55:02;;;;;;;18.20;1.98;;;9.20;73.40;;;;;;4995060;28;20050;-74
2021/03/27 00:57:32;;;;;;;17.17;2.58;;;9.30;73.60;;;;;;4995606;28;20529;-74
2021/03/27 01:00:20;;;;;;;14.48;2.40;;;9.30;73.60;;;;;;4995024;28;20452;-74
2021/03/27 01:02:58;;;;;;;13.52;2.47;;;9.30;73.90;;;;;;4995235;28;20136;-74
2021/03/27 01:05:27;;;;;;;12.13;2.25;;;9.30;73.70;;;;;;4995408;28;20038;-74
2021/03/27 01:07:55;;;;;;;19.48;2.85;;;9.30;73.30;;;;;;4993984;28;20185;-74
2021/03/27 01:10:29;;;;;;;17.58;2.38;;;9.30;73.00;;;;;;4994905;28;20074;-74
2021/03/27 01:12:57;;;;;;;17.10;2.38;;;9.30;72.90;;;;;;4995266;28;20050;-74
2021/03/27 01:15:46;;;;;;;17.40;2.30;;;9.30;72.90;;;;;;4995049;28;20053;-74
2021/03/27 01:18:18;;;;;;;13.45;2.72;;;9.30;72.80;;;;;;4995325;28;20054;-74
2021/03/27 01:20:53;;;;;;;16.45;2.00;;;9.30;71.70;;;;;;4994918;28;20039;-74
2021/03/27 01:23:20;;;;;;;19.70;2.40;;;9.20;70.40;;;;;;4995067;28;20074;-73
2021/03/27 01:25:47;;;;;;;22.05;3.05;;;9.20;69.70;;;;;;4994651;28;20129;-74
2021/03/27 01:28:27;;;;;;;18.80;2.50;;;9.20;69.50;;;;;;4993869;28;20035;-74
2021/03/27 01:31:11;;;;;;;14.55;2.40;;;9.20;69.30;;;;;;4977338;28;20042;-74
2021/03/27 01:34:25;;;;;;;14.18;2.10;;;9.20;69.60;;;;;;4994760;28;20468;-74
2021/03/27 01:37:07;;;;;;;17.38;2.60;;;9.10;69.50;;;;;;4925227;28;20115;-74
2021/03/27 01:39:58;;;;;;;14.48;2.33;;;9.10;69.40;;;;;;4994615;28;20070;-74
2021/03/27 01:42:40;;;;;;;13.73;1.80;;;9.10;68.90;;;;;;4998061;28;20049;-74
2021/03/27 01:45:16;;;;;;;11.40;1.90;;;9.10;68.50;;;;;;4997082;28;20479;-74
2021/03/27 01:47:45;;;;;;;13.82;1.92;;;9.00;68.00;;;;;;4997960;28;20041;-74
2021/03/27 01:50:14;;;;;;;14.48;1.90;;;9.00;67.80;;;;;;4998045;28;20054;-74
2021/03/27 01:52:51;;;;;;;10.70;2.08;;;9.00;67.60;;;;;;4998052;28;20038;-74
2021/03/27 01:55:42;;;;;;;16.55;2.10;;;9.00;66.70;;;;;;4996407;28;20487;-74
2021/03/27 01:58:32;;;;;;;19.45;2.30;;;9.00;66.30;;;;;;4996424;28;20065;-74
2021/03/27 02:01:13;;;;;;;10.85;2.05;;;9.00;65.20;;;;;;4995683;28;20042;-74
2021/03/27 02:03:51;;;;;;;14.95;1.90;;;9.00;65.40;;;;;;4997887;28;20034;-74
2021/03/27 02:06:29;;;;;;;13.48;1.70;;;9.00;65.60;;;;;;4998137;28;20041;-74
2021/03/27 02:09:28;;;;;;;12.38;2.17;;;9.00;65.50;;;;;;4996851;28;20049;-74
2021/03/27 02:12:08;;;;;;;14.48;1.75;;;8.90;65.90;;;;;;4998100;28;20561;-74
2021/03/27 02:14:57;;;;;;;17.33;1.65;;;8.90;65.80;;;;;;4997589;28;20049;-74
2021/03/27 02:17:46;;;;;;;14.40;1.85;;;8.90;66.20;;;;;;4995888;28;20045;-74
2021/03/27 02:20:54;;;;;;;8.25;1.83;;;8.90;66.20;;;;;;4997483;28;20038;-74
2021/03/27 02:23:51;;;;;;;15.60;2.33;;;9.00;66.40;;;;;;4983536;28;20049;-74
2021/03/27 02:26:25;;;;;;;11.95;1.70;;;9.00;66.30;;;;;;4979750;28;20569;-74
2021/03/27 02:29:27;;;;;;;11.33;1.90;;;9.00;66.00;;;;;;4995936;28;20062;-74
2021/03/27 02:32:05;;;;;;;15.98;2.08;;;9.00;66.30;;;;;;4997458;28;20284;-74
2021/03/27 02:34:44;;;;;;;17.00;1.98;;;9.00;66.60;;;;;;4995851;28;20042;-74
2021/03/27 02:37:20;;;;;;;12.52;2.10;;;8.90;66.50;;;;;;4997365;28;20084;-74
2021/03/27 02:40:08;;;;;;;9.68;2.33;;;9.00;66.60;;;;;;4992064;28;20054;-74
2021/03/27 02:42:55;;;;;;;13.82;1.92;;;8.90;66.90;;;;;;4977552;28;20088;-74
2021/03/27 02:45:47;;;;;;;11.85;1.50;;;8.90;67.60;;;;;;4977832;28;20043;-75
2021/03/27 02:48:43;;;;;;;12.90;1.90;;;8.90;67.30;;;;;;4976768;28;20389;-75
2021/03/27 02:51:38;;;;;;;13.35;1.70;;;8.90;67.40;;;;;;4977900;28;20535;-74
2021/03/27 02:54:18;;;;;;;13.02;2.28;;;9.00;67.10;;;;;;4987013;28;20488;-74
2021/03/27 02:57:02;;;;;;;18.17;1.90;;;9.00;67.10;;;;;;4977610;28;20126;-74
2021/03/27 02:59:58;;;;;;;15.13;1.90;;;9.10;67.20;;;;;;4977716;28;20105;-74
2021/03/27 03:02:45;;;;;;;18.13;2.25;;;9.10;67.50;;;;;;4992432;28;20396;-74
2021/03/27 03:05:14;;;;;;;18.17;2.53;;;9.10;68.20;;;;;;4977886;28;20531;-74
2021/03/27 03:07:52;;;;;;;21.42;2.33;;;9.10;68.20;;;;;;4976847;28;20057;-74
2021/03/27 03:10:56;;;;;;;17.42;2.58;;;9.10;68.30;;;;;;4977418;28;20500;-74
2021/03/27 03:13:30;;;;;;;13.93;1.90;;;9.10;68.40;;;;;;4966223;28;20061;-74
2021/03/27 03:16:15;;;;;;;17.00;2.07;;;9.10;68.30;;;;;;4977187;28;20035;-74
2021/03/27 03:18:51;;;;;;;12.88;1.70;;;9.10;68.30;;;;;;4991872;28;20093;-74
2021/03/27 03:21:40;;;;;;;11.80;1.88;;;9.10;68.30;;;;;;4977296;28;20046;-74
2021/03/27 03:24:09;;;;;;;17.38;1.92;;;9.20;67.50;;;;;;4977307;28;20045;-74
2021/03/27 03:27:00;;;;;;;11.93;1.60;;;9.30;67.60;;;;;;4976826;28;20030;-75
2021/03/27 03:29:25;;;;;;;16.25;2.03;;;9.30;67.70;;;;;;4976864;28;20049;-74
2021/03/27 03:32:15;;;;;;;12.07;2.15;;;9.40;69.70;;;;;;4977030;28;20458;-74
2021/03/27 03:35:06;;;;;;;17.70;2.35;;;9.30;71.60;;;;;;4977026;28;20052;-74
2021/03/27 03:38:13;;;;;;;14.52;1.70;;;9.30;74.10;;;;;;4975267;28;20081;-74
2021/03/27 03:41:11;;;;;;;9.27;1.65;;;9.30;74.20;;;;;;4975349;28;20066;-74
2021/03/27 03:43:49;;;;;;;15.23;2.17;;;9.20;74.50;;;;;;4991517;28;20049;-74
2021/03/27 03:46:39;;;;;;;18.25;3.42;;;9.20;75.20;;;;;;4976640;28;20042;-74
2021/03/27 03:49:13;;;;;;;16.52;2.75;;;9.20;75.60;;;;;;4977079;28;20617;-75
2021/03/27 03:51:45;;;;;;;21.38;2.40;;;9.10;76.30;;;;;;4974992;28;20077;-74
2021/03/27 03:54:55;;;;;;;15.25;2.58;;;9.10;76.30;;;;;;4975953;28;20154;-75
2021/03/27 03:57:29;;;;;;;15.27;2.75;;;9.10;76.40;;;;;;4916382;29;20040;-74
2021/03/27 04:00:10;;;;;;;;;;;9.10;76.60;;;;;;4967274;28;20129;-75
2021/03/27 04:03:07;;;;;;;10.70;1.88;;;9.10;76.10;;;;;;4976010;28;19914;-74
2021/03/27 04:05:39;;;;;;;11.77;2.20;;;9.00;75.80;;;;;;4989937;28;20031;-75
2021/03/27 04:08:22;;;;;;;12.77;2.15;;;9.00;75.20;;;;;;4976340;28;20038;-74
2021/03/27 04:11:00;;;;;;;12.02;2.10;;;8.90;74.90;;;;;;4990225;28;20046;-74
2021/03/27 04:13:31;;;;;;;9.77;2.13;;;8.90;75.30;;;;;;4976253;28;20496;-74
2021/03/27 04:16:15;;;;;;;15.35;1.77;;;8.80;75.20;;;;;;4974389;28;20047;-75
2021/03/27 04:18:47;;;;;;;12.60;2.42;;;8.70;75.10;;;;;;4990761;28;20480;-74
2021/03/27 04:21:28;;;;;;;12.05;2.38;;;8.70;75.80;;;;;;4975503;28;20066;-74
2021/03/27 04:24:09;;;;;;;9.32;1.70;;;8.60;76.10;;;;;;4990291;28;20093;-75
2021/03/27 04:26:37;;;;;;;15.10;2.08;;;8.60;76.20;;;;;;4976049;28;20039;-74
2021/03/27 04:29:11;;;;;;;16.10;2.22;;;8.60;76.50;;;;;;4974770;28;20476;-74
2021/03/27 04:32:05;;;;;;;12.68;1.83;;;8.50;76.60;;;;;;4990630;28;20049;-75
2021/03/27 04:34:43;;;;;;;16.75;2.10;;;8.50;76.70;;;;;;4975589;28;20069;-74
2021/03/27 04:37:32;;;;;;;16.77;2.60;;;8.50;76.70;;;;;;4975683;28;20050;-74
2021/03/27 04:40:21;;;;;;;15.15;2.03;;;8.40;77.10;;;;;;4980717;28;20086;-74
2021/03/27 04:43:12;;;;;;;17.02;1.88;;;8.40;77.40;;;;;;4994002;28;20487;-75
2021/03/27 04:45:48;;;;;;;16.63;2.25;;;8.40;77.50;;;;;;4995267;28;20479;-74
2021/03/27 04:48:20;;;;;;;20.08;2.08;;;8.40;77.80;;;;;;4994206;28;20030;-74
2021/03/27 04:51:01;;;;;;;13.30;1.65;;;8.30;78.10;;;;;;4995245;28;20034;-74
2021/03/27 04:53:40;;;;;;;15.95;2.10;;;8.20;78.40;;;;;;4994312;28;20046;-74
2021/03/27 04:56:16;;;;;;;13.98;1.85;;;8.20;78.90;;;;;;4995404;28;20077;-73
2021/03/27 04:58:58;;;;;;;18.58;1.85;;;8.10;79.20;;;;;;4995321;28;20034;-74
2021/03/27 05:01:57;;;;;;;21.40;2.45;;;8.10;79.20;;;;;;4995517;28;20046;-74
2021/03/27 05:04:23;;;;;;;14.32;1.88;;;8.10;79.00;;;;;;4995250;28;20034;-74
2021/03/27 05:06:57;;;;;;;18.70;1.83;;;8.10;79.20;;;;;;4993983;28;20041;-74
2021/03/27 05:09:41;;;;;;;19.35;2.10;;;8.10;79.10;;;;;;4993327;28;20049;-74
2021/03/27 05:12:18;;;;;;;9.73;1.83;;;8.10;79.10;;;;;;4995565;28;20061;-74
2021/03/27 05:15:01;;;;;;;16.95;2.63;;;8.10;78.90;;;;;;4995062;28;20102;-74
2021/03/27 05:17:55;;;;;;;13.65;2.13;;;8.20;78.80;;;;;;4980604;28;20076;-74
2021/03/27 05:20:33;;;;;;;14.43;2.92;;;8.20;79.00;;;;;;4998822;28;20562;-74
2021/03/27 05:23:13;;;;;;;14.00;2.75;;;8.20;78.30;;;;;;4998479;28;20104;-74
2021/03/27 05:25:44;;;;;;;23.05;4.32;;;8.20;78.00;;;;;;4998457;28;20113;-74
2021/03/27 05:28:23;;;;;;;10.77;2.10;;;8.20;78.00;;;;;;4997625;28;20039;-74
2021/03/27 05:31:13;;;;;;;14.23;3.25;;;8.20;78.20;;;;;;4998618;28;20041;-74
2021/03/27 05:33:57;;;;;;;17.67;2.22;;;8.20;78.00;;;;;;4997821;28;20039;-74
2021/03/27 05:36:46;;;;;;;17.05;2.80;;;8.20;78.40;;;;;;4997205;28;20037;-74
2021/03/27 05:39:35;;;;;;;19.08;2.72;;;8.10;78.10;;;;;;4998230;28;20046;-74
2021/03/27 05:42:16;;;;;;;14.70;2.53;;;8.10;77.80;;;;;;4997015;28;20057;-74
2021/03/27 05:45:00;;;;;;;16.02;2.58;;;8.10;79.00;;;;;;4998393;28;20061;-74
2021/03/27 05:48:01;;;;;;;12.73;1.98;;;8.10;79.70;;;;;;4998281;28;20085;-74
2021/03/27 05:50:32;;;;;;;14.85;2.55;;;8.00;80.00;;;;;;4997201;28;20563;-74
2021/03/27 05:53:40;;;;;;;21.70;2.60;;;8.00;80.20;;;;;;4998143;28;20124;-74
2021/03/27 05:56:50;;;;;;;20.52;1.92;;;7.90;80.10;;;;;;4987366;28;20069;-74
2021/03/27 05:59:55;;;;;;;18.98;3.05;;;7.90;79.60;;;;;;4976882;28;20038;-74
2021/03/27 06:02:32;;;;;;;12.25;2.63;;;7.90;77.60;;;;;;4998099;28;20034;-74
2021/03/27 06:05:30;;;;;;;34.58;3.75;;;8.00;78.00;;;;;;4997919;28;20065;-74
2021/03/27 06:08:28;;;;;;;16.80;3.00;;;8.10;78.20;;;;;;4997653;28;20030;-74
2021/03/27 06:11:29;;;;;;;16.88;2.25;;;8.10;78.20;;;;;;4996262;28;20034;-73
2021/03/27 06:14:11;;;;;;;14.73;2.15;;;8.10;78.10;;;;;;4998749;28;20574;-73
2021/03/27 06:17:15;;;;;;;25.55;3.70;;;8.10;78.40;;;;;;4996790;28;20489;-73
2021/03/27 06:20:33;;;;;;;20.88;2.50;;;8.10;78.70;;;;;;4954145;28;20041;-73
2021/03/27 06:23:14;;;;;;;17.23;2.60;;;8.10;78.30;;;;;;4993095;28;20053;-73
2021/03/27 06:26:18;;;;;;;15.40;2.80;;;8.20;78.50;;;;;;4978004;28;20062;-73
2021/03/27 06:29:08;;;;;;;22.45;3.50;;;8.30;78.00;;;;;;4977022;28;20117;-73
2021/03/27 06:31:55;;;;;;;20.25;3.80;;;8.40;77.70;;;;;;4960668;28;20041;-73
2021/03/27 06:34:58;;;;;;;13.75;2.63;;;8.40;77.90;;;;;;4978139;28;20039;-73
2021/03/27 06:38:05;;;;;;;22.60;3.40;;;8.40;78.20;;;;;;4978409;28;20039;-73
2021/03/27 06:41:00;;;;;;;19.92;2.83;;;8.40;78.50;;;;;;4950324;28;20063;-72
2021/03/27 06:43:47;;;;;;;21.92;2.72;;;8.50;78.50;;;;;;4958717;28;20039;-72
2021/03/27 06:46:31;;;;;;;17.77;2.40;;;8.60;78.70;;;;;;4956703;28;20038;-72
2021/03/27 06:49:16;;;;;;;20.80;2.63;;;8.70;78.50;;;;;;4956639;29;20412;-72
2021/03/27 06:51:49;;;;;;;13.30;2.70;;;8.70;78.50;;;;;;4958486;28;20147;-72
2021/03/27 06:54:25;;;;;;;15.20;2.67;;;8.70;78.10;;;;;;4957808;28;20071;-73
2021/03/27 06:57:23;;;;;;;21.58;3.38;;;8.80;77.60;;;;;;4957924;28;20485;-72
2021/03/27 07:00:02;;;;;;;16.40;2.70;;;8.90;76.90;;;;;;4958121;28;20567;-73
2021/03/27 07:03:05;;;;;;;20.80;2.63;;;9.00;77.80;;;;;;4957702;28;20043;-73
2021/03/27 07:05:57;;;;;;;16.15;2.53;;;9.10;76.80;;;;;;4957778;29;20543;-74
2021/03/27 07:08:50;;;;;;;14.85;2.88;;;9.20;78.00;;;;;;4958046;28;20031;-75
2021/03/27 07:11:54;;;;;;;17.02;2.60;;;9.30;77.60;;;;;;4957946;28;20046;-73
2021/03/27 07:14:23;;;;;;;10.33;2.50;;;9.40;76.70;;;;;;4942346;28;20052;-73
2021/03/27 07:17:04;;;;;;;12.88;1.88;;;9.60;75.80;;;;;;4957534;29;20082;-73
2021/03/27 07:20:19;;;;;;;11.90;2.25;;;9.80;75.30;;;;;;4957613;29;20113;-75
2021/03/27 07:23:17;;;;;;;17.58;3.00;;;9.90;74.50;;;;;;4935186;28;20059;-73
2021/03/27 07:26:12;;;;;;;10.63;2.35;;;10.10;73.00;;;;;;4957147;28;20035;-73
2021/03/27 07:29:02;;;;;;;10.18;2.53;;;10.20;72.10;;;;;;4957378;28;20077;-73
2021/03/27 07:32:06;;;;;;;13.98;2.40;;;10.40;71.50;;;;;;4957581;28;20039;-73
2021/03/27 07:34:54;;;;;;;12.00;3.28;;;10.50;70.10;;;;;;4957137;28;20039;-73
2021/03/27 07:37:44;;;;;;;18.05;1.70;;;10.60;69.40;;;;;;4957244;28;20504;-73
2021/03/27 07:40:32;;;;;;;13.40;2.80;;;10.80;68.30;;;;;;4964419;28;20149;-73
2021/03/27 07:43:01;;;;;;;11.95;1.90;;;10.90;67.70;;;;;;4976650;28;20046;-73
2021/03/27 07:45:26;;;;;;;16.63;2.78;;;11.00;66.90;;;;;;4959265;28;20101;-73
2021/03/27 07:48:03;;;;;;;18.30;3.35;;;11.00;66.90;;;;;;4959220;28;20039;-73
2021/03/27 07:50:51;;;;;;;17.48;2.13;;;11.10;66.50;;;;;;4976635;28;20446;-73
2021/03/27 07:53:36;;;;;;;15.43;3.13;;;11.10;66.40;;;;;;4976832;28;20043;-73
2021/03/27 07:56:39;;;;;;;14.55;2.63;;;11.20;66.80;;;;;;4976552;28;20130;-73
2021/03/27 07:59:41;;;;;;;9.80;2.20;;;11.30;67.50;;;;;;4976479;28;20077;-73
2021/03/27 08:02:35;;;;;;;12.20;2.15;;;11.40;67.10;;;;;;4976687;28;20055;-73
2021/03/27 08:05:40;;;;;;;19.38;2.38;;;11.60;65.70;;;;;;4976381;28;20110;-73
2021/03/27 08:08:27;;;;;;;11.55;2.05;;;11.60;65.50;;;;;;4976533;28;20114;-73
2021/03/27 08:10:56;;;;;;;12.32;2.03;;;11.70;64.20;;;;;;4976041;28;20481;-73
2021/03/27 08:13:46;;;;;;;13.77;2.03;;;11.70;65.30;;;;;;4976056;28;20038;-73
2021/03/27 08:16:34;;;;;;;21.60;2.25;;;11.90;64.40;;;;;;4976122;28;20061;-73
2021/03/27 08:19:07;;;;;;;17.00;2.35;;;12.00;64.30;;;;;;4975834;28;20125;-73
2021/03/27 08:22:17;;;;;;;23.88;2.88;;;12.00;63.30;;;;;;4976223;28;20064;-73
2021/03/27 08:25:00;;;;;;;19.50;2.35;;;12.20;66.00;;;;;;4916112;29;20192;-74
2021/03/27 08:27:44;;;;;;;14.77;2.05;;;12.30;62.60;;;;;;4973695;28;20038;-75
2021/03/27 08:30:52;;;;;;;14.65;2.08;;;12.30;64.40;;;;;;4976097;28;20035;-75
2021/03/27 08:33:55;;;;;;;11.27;1.60;;;12.30;63.10;;;;;;4967616;28;20038;-74
2021/03/27 08:36:49;;;;;;;14.43;1.92;;;12.50;62.70;;;;;;4976142;28;20038;-74
2021/03/27 08:39:52;;;;;;;13.57;2.22;;;12.50;61.50;;;;;;4975522;28;20051;-75
2021/03/27 08:42:26;;;;;;;20.00;2.35;;;12.50;62.30;;;;;;4975381;28;20038;-74
2021/03/27 08:44:58;;;;;;;23.80;2.58;;;12.30;61.30;;;;;;4975838;28;20039;-74
2021/03/27 08:47:48;;;;;;;14.30;2.85;;;12.20;60.70;;;;;;4975853;28;20097;-74
2021/03/27 08:50:26;;;;;;;14.52;2.17;;;11.90;59.90;;;;;;4976239;28;20066;-74
2021/03/27 08:53:35;;;;;;;17.17;2.15;;;11.70;59.70;;;;;;4964697;28;20471;-74
2021/03/27 08:56:22;;;;;;;13.52;2.13;;;11.60;60.60;;;;;;4982038;28;20041;-74
2021/03/27 08:59:26;;;;;;;15.80;2.47;;;11.70;60.70;;;;;;4981889;28;20039;-73
2021/03/27 09:02:00;;;;;;;12.13;2.15;;;12.10;59.50;;;;;;4964553;28;20043;-75
2021/03/27 09:05:23;;;;;;;23.65;2.70;;;12.50;58.70;;;;;;4980571;28;20034;-75
2021/03/27 09:08:25;;;;;;;17.40;3.15;;;12.90;57.10;;;;;;4922061;29;20048;-76
2021/03/27 09:11:06;;;;;;;14.18;2.92;;;13.10;59.00;;;;;;4981312;28;20049;-75
2021/03/27 09:14:03;;;;;;;16.15;2.22;;;13.30;58.30;;;;;;4964439;28;20424;-74
2021/03/27 09:16:48;;;;;;;9.95;2.40;;;13.60;55.50;;;;;;4982330;28;20046;-73
2021/03/27 09:19:32;;;;;;;17.77;1.75;;;14.00;56.60;;;;;;4982100;28;20047;-74
2021/03/27 09:22:36;;;;;;;11.02;1.67;;;14.40;56.90;;;;;;4982362;28;20391;-74
2021/03/27 09:25:20;;;;;;;17.65;2.67;;;14.60;55.60;;;;;;4959020;28;20034;-74
2021/03/27 09:28:35;;;;;;;15.98;2.40;;;14.50;56.40;;;;;;4964405;28;20126;-75
2021/03/27 09:31:03;;;;;;;14.60;2.20;;;14.40;56.90;;;;;;4975536;28;20074;-75
2021/03/27 09:33:54;;;;;;;12.23;2.60;;;14.70;56.60;;;;;;4981683;28;20121;-75
2021/03/27 09:36:43;;;;;;;18.98;2.85;;;14.90;55.30;;;;;;4981670;28;20070;-75
2021/03/27 09:39:24;;;;;;;16.27;2.72;;;14.90;54.40;;;;;;4981366;28;20039;-75
2021/03/27 09:42:23;;;;;;;19.63;2.45;;;15.10;55.30;;;;;;4963773;28;20047;-75
2021/03/27 09:45:22;;;;;;;11.80;2.38;;;15.40;54.60;;;;;;4981694;28;20043;-73
2021/03/27 09:48:00;;;;;;;11.25;2.35;;;15.70;53.20;;;;;;4981370;28;20387;-73
2021/03/27 09:50:26;;;;;;;11.23;1.98;;;15.70;52.20;;;;;;4981659;28;20046;-73
2021/03/27 09:53:10;;;;;;;10.98;1.90;;;15.80;51.70;;;;;;4981615;28;20038;-73
2021/03/27 09:55:40;;;;;;;10.57;1.80;;;15.90;50.60;;;;;;4981320;28;20046;-73
2021/03/27 09:58:33;;;;;;;15.10;2.22;;;16.00;51.20;;;;;;4979790;28;20053;-73
2021/03/27 10:01:12;;;;;;;12.57;2.28;;;16.00;52.60;;;;;;4981233;28;20038;-73
2021/03/27 10:04:04;;;;;;;15.18;2.42;;;15.70;51.20;;;;;;4978651;28;20435;-73
2021/03/27 10:06:58;;;;;;;15.23;2.63;;;15.30;52.50;;;;;;4955513;28;20039;-73
2021/03/27 10:10:02;;;;;;;16.13;2.22;;;14.90;54.10;;;;;;4976517;28;20039;-73
2021/03/27 10:12:38;;;;;;;13.40;1.95;;;14.50;55.80;;;;;;4978211;28;20042;-73
2021/03/27 10:15:20;;;;;;;13.20;2.10;;;14.20;56.00;;;;;;4960898;28;20038;-73
2021/03/27 10:17:54;;;;;;;16.98;2.95;;;14.20;56.90;;;;;;4978127;28;20058;-73
2021/03/27 10:20:50;;;;;;;15.20;2.72;;;14.20;57.00;;;;;;4977675;28;20039;-72
2021/03/27 10:23:35;;;;;;;14.57;2.75;;;14.10;57.30;;;;;;4971630;28;20068;-73
2021/03/27 10:26:34;;;;;;;12.73;1.92;;;14.10;56.80;;;;;;4977838;28;20031;-73
2021/03/27 10:32:29;;;;;;;12.30;2.25;;;14.10;56.70;;;;;;4977944;28;20035;-73
2021/03/27 10:35:19;;;;;;;19.73;2.83;;;14.10;56.40;;;;;;4977749;28;20089;-73
2021/03/27 10:38:23;;;;;;;19.00;2.55;;;14.00;56.60;;;;;;4977642;28;20058;-73
2021/03/27 10:41:26;;;;;;;13.13;2.35;;;13.90;56.80;;;;;;4977190;28;20571;-73
2021/03/27 10:44:25;;;;;;;14.43;2.10;;;14.10;56.00;;;;;;4957944;28;20503;-73
2021/03/27 10:47:00;;;;;;;13.88;1.95;;;14.00;55.70;;;;;;4959869;28;20153;-73
2021/03/27 10:49:40;;;;;;;14.50;2.13;;;14.20;55.20;;;;;;4977583;28;20034;-73
2021/03/27 10:52:28;;;;;;;20.45;2.17;;;14.20;55.30;;;;;;4959646;28;20503;-73
2021/03/27 10:55:19;;;;;;;17.65;2.30;;;14.20;54.70;;;;;;4959680;28;20034;-76
2021/03/27 10:58:06;;;;;;;17.40;2.33;;;14.30;54.40;;;;;;4959127;28;20070;-73
2021/03/27 11:01:09;;;;;;;14.00;2.30;;;14.40;54.60;;;;;;4977109;28;20042;-73
2021/03/27 11:04:12;;;;;;;13.02;2.00;;;14.60;53.90;;;;;;4977224;28;20491;-73
2021/03/27 11:07:16;;;;;;;12.70;2.25;;;14.90;52.90;;;;;;4976889;28;20062;-73
2021/03/27 11:09:44;;;;;;;11.00;1.98;;;15.20;52.80;;;;;;4953721;28;20122;-73
2021/03/27 11:12:21;;;;;;;14.52;1.85;;;15.80;50.90;;;;;;4980551;28;20038;-73
2021/03/27 11:15:11;;;;;;;12.90;2.03;;;15.90;51.10;;;;;;4995272;28;20046;-73
2021/03/27 11:17:46;;;;;;;11.25;2.05;;;16.10;51.10;;;;;;4995987;28;20038;-74
2021/03/27 11:20:29;;;;;;;9.02;2.10;;;16.40;50.70;;;;;;4995946;28;20132;-74
2021/03/27 11:23:01;;;;;;;14.52;2.15;;;16.40;50.30;;;;;;4996046;28;20034;-74
2021/03/27 11:26:09;;;;;;;11.52;1.90;;;16.40;50.10;;;;;;4995853;28;20625;-74
2021/03/27 11:28:51;;;;;;;11.75;2.08;;;16.50;49.30;;;;;;4995504;28;20054;-74
2021/03/27 11:31:42;;;;;;;12.48;2.38;;;16.30;49.60;;;;;;4995380;28;20569;-74
2021/03/27 11:34:11;;;;;;;12.93;1.98;;;16.00;50.50;;;;;;4996519;28;20030;-73
2021/03/27 11:36:46;;;;;;;10.40;2.38;;;15.80;51.50;;;;;;4978584;28;20040;-74
2021/03/27 11:39:30;;;;;;;12.80;1.95;;;15.60;52.30;;;;;;4995230;28;20057;-74
2021/03/27 11:42:16;;;;;;;13.80;2.20;;;15.40;52.10;;;;;;4995292;28;20488;-74
2021/03/27 11:44:56;;;;;;;10.52;2.30;;;15.70;52.30;;;;;;4984739;28;20041;-76
2021/03/27 11:47:47;;;;;;;18.70;2.42;;;15.80;51.70;;;;;;4977552;28;20546;-74
2021/03/27 11:50:36;;;;;;;13.90;2.53;;;15.90;51.50;;;;;;4994929;28;20078;-74
2021/03/27 11:53:29;;;;;;;14.18;3.13;;;15.90;51.50;;;;;;4995558;28;20038;-74
2021/03/27 11:56:07;;;;;;;12.68;2.33;;;15.60;52.20;;;;;;4994820;28;20429;-76
2021/03/27 12:01:34;;;;;;;15.82;2.75;;;15.60;52.70;;;;;;4994432;28;20419;-74
2021/03/27 12:04:29;;;;;;;11.38;2.88;;;15.90;52.40;;;;;;4995112;28;20038;-75
2021/03/27 12:07:00;;;;;;;15.68;2.65;;;15.60;53.10;;;;;;4975512;28;20034;-75
2021/03/27 12:09:44;;;;;;;14.07;2.65;;;15.50;54.00;;;;;;4993903;28;20073;-74
2021/03/27 12:12:38;;;;;;;12.60;2.63;;;15.60;53.90;;;;;;4977516;28;20038;-74
2021/03/27 12:15:50;;;;;;;11.93;2.03;;;15.70;53.90;;;;;;4997258;28;20086;-75
2021/03/27 12:18:21;;;;;;;14.23;2.53;;;15.90;54.20;;;;;;4990208;28;20045;-74
2021/03/27 12:21:34;;;;;;;12.50;2.35;;;16.10;52.80;;;;;;4993854;28;20081;-74
2021/03/27 12:24:25;;;;;;;15.70;2.65;;;16.20;52.60;;;;;;4948429;28;20046;-74
2021/03/27 12:27:04;;;;;;;15.88;2.30;;;16.30;52.70;;;;;;4993596;28;20034;-74
2021/03/27 12:29:38;;;;;;;16.23;2.60;;;16.50;52.30;;;;;;4994557;28;20407;-73
2021/03/27 12:32:23;;;;;;;15.73;2.40;;;16.60;52.00;;;;;;4988259;28;20045;-74
2021/03/27 12:35:36;;;;;;;9.18;1.98;;;16.50;51.90;;;;;;5002098;28;20200;-73
2021/03/27 12:38:07;;;;;;;18.85;2.50;;;16.50;51.30;;;;;;4950995;29;20074;-73
2021/03/27 12:40:55;;;;;;;12.27;2.63;;;16.50;52.60;;;;;;4948050;29;20067;-74
2021/03/27 12:43:26;;;;;;;15.25;2.95;;;16.50;51.40;;;;;;4974504;28;20046;-74
2021/03/27 12:46:05;;;;;;;16.08;3.50;;;16.40;51.80;;;;;;4993660;28;20046;-74
2021/03/27 12:49:10;;;;;;;12.88;2.47;;;16.50;51.70;;;;;;4993714;28;20557;-73
2021/03/27 12:51:54;;;;;;;15.75;2.28;;;16.40;51.60;;;;;;4971818;28;20502;-74
2021/03/27 12:54:40;;;;;;;11.60;2.05;;;16.50;51.10;;;;;;4993979;28;20523;-74
2021/03/27 12:57:31;;;;;;;15.70;2.30;;;16.70;50.70;;;;;;4977040;28;20046;-74
2021/03/27 13:00:25;;;;;;;9.52;1.70;;;16.80;50.60;;;;;;4992203;28;20138;-74
2021/03/27 13:03:21;;;;;;;7.95;1.70;;;16.60;51.30;;;;;;4993690;28;20042;-74
2021/03/27 13:06:10;;;;;;;12.00;2.10;;;16.70;51.40;;;;;;4992203;28;20511;-74
2021/03/27 13:08:39;;;;;;;15.73;2.35;;;16.70;50.50;;;;;;4992076;28;20042;-74
2021/03/27 13:11:27;;;;;;;11.23;2.25;;;16.90;48.90;;;;;;4993705;28;20026;-74
2021/03/27 13:14:30;;;;;;;10.27;1.90;;;16.80;49.00;;;;;;4994004;28;20521;-74
2021/03/27 13:17:05;;;;;;;15.52;2.05;;;16.80;48.30;;;;;;4993992;28;20041;-74
2021/03/27 13:19:43;;;;;;;11.88;2.20;;;16.80;48.70;;;;;;4993904;28;20042;-74
2021/03/27 13:22:36;;;;;;;12.32;2.15;;;16.50;49.50;;;;;;4993841;28;20073;-74
2021/03/27 13:25:28;;;;;;;11.25;2.45;;;16.40;51.50;;;;;;4993703;28;20046;-75
2021/03/27 13:28:02;;;;;;;12.75;2.38;;;16.40;50.10;;;;;;4994245;28;20104;-73
2021/03/27 13:30:49;;;;;;;10.05;1.90;;;16.30;50.90;;;;;;4994100;28;20499;-73
2021/03/27 13:33:27;;;;;;;11.00;2.33;;;16.40;49.50;;;;;;4993819;28;20069;-73
2021/03/27 13:35:52;;;;;;;9.07;2.40;;;16.40;50.40;;;;;;4993836;28;20047;-73
2021/03/27 13:38:27;;;;;;;12.60;1.70;;;16.50;49.90;;;;;;4979479;28;20399;-73
2021/03/27 13:40:57;;;;;;;9.95;1.67;;;16.50;49.90;;;;;;4997642;28;20046;-73
2021/03/27 13:43:36;;;;;;;13.02;2.75;;;16.50;49.70;;;;;;4997687;28;20149;-73
2021/03/27 13:46:43;;;;;;;12.00;3.15;;;16.50;48.00;;;;;;4997604;28;20038;-74
2021/03/27 13:49:24;;;;;;;13.18;2.17;;;16.30;49.00;;;;;;4991559;28;20424;-74
2021/03/27 13:52:00;;;;;;;20.95;2.63;;;16.20;49.60;;;;;;4979880;28;20065;-73
2021/03/27 13:54:29;;;;;;;17.73;2.15;;;16.00;49.60;;;;;;4979333;28;20529;-73
2021/03/27 13:57:01;;;;;;;12.85;2.00;;;16.10;49.50;;;;;;4997296;28;20090;-73
2021/03/27 13:59:58;;;;;;;16.40;2.30;;;16.20;50.00;;;;;;4997343;28;20034;-74
2021/03/27 14:02:42;;;;;;;16.85;2.28;;;16.30;49.60;;;;;;4996756;28;20049;-73
2021/03/27 14:05:37;;;;;;;10.98;2.17;;;16.20;48.70;;;;;;4997168;28;20046;-74
2021/03/27 14:08:28;;;;;;;11.30;2.30;;;16.50;49.30;;;;;;4997035;28;20113;-73
2021/03/27 14:11:10;;;;;;;12.57;3.58;;;16.50;49.70;;;;;;4996477;28;20076;-74
2021/03/27 14:13:41;;;;;;;18.38;3.72;;;16.60;49.50;;;;;;4995449;28;20038;-75
2021/03/27 14:16:25;;;;;;;14.07;2.08;;;16.40;48.50;;;;;;4996573;28;20074;-74
2021/03/27 14:19:09;;;;;;;13.43;2.35;;;16.30;49.20;;;;;;4997140;28;20038;-74
2021/03/27 14:21:59;;;;;;;7.03;1.70;;;16.20;49.80;;;;;;4997165;28;20069;-73
2021/03/27 14:24:43;;;;;;;15.57;2.45;;;16.20;48.60;;;;;;4996541;28;20125;-74